createdAt,value
2022-08-18T00:01:41.024Z,47.06
2022-08-18T00:04:34.702Z,47.17
2022-08-18T00:07:10.002Z,47.06
2022-08-18T00:09:45.469Z,47.08
2022-08-18T00:12:32.100Z,46.98
2022-08-18T00:15:05.841Z,47.28
2022-08-18T00:17:41.139Z,47.30
2022-08-18T00:20:23.657Z,47.34
2022-08-18T00:22:58.057Z,47.37
2022-08-18T00:25:33.728Z,47.41
2022-08-18T00:28:07.177Z,47.30
2022-08-18T00:30:39.566Z,47.42
2022-08-18T00:33:12.273Z,47.62
2022-08-18T00:35:44.630Z,47.66
2022-08-18T00:38:24.610Z,47.65
2022-08-18T00:40:59.013Z,47.70
2022-08-18T00:43:41.413Z,47.77
2022-08-18T00:46:18.675Z,47.68
2022-08-18T00:48:53.135Z,47.86
2022-08-18T00:51:29.127Z,47.83
2022-08-18T00:54:08.153Z,48.10
2022-08-18T00:56:45.119Z,47.98
2022-08-18T00:59:23.928Z,48.03
2022-08-18T01:02:10.998Z,48.08
2022-08-18T01:04:48.470Z,48.06
2022-08-18T01:07:29.913Z,48.05
2022-08-18T01:10:05.766Z,48.05
2022-08-18T01:12:45.151Z,48.03
2022-08-18T01:15:28.173Z,48.08
2022-08-18T01:18:20.493Z,48.26
2022-08-18T01:21:18.875Z,48.19
2022-08-18T01:23:52.971Z,48.24
2022-08-18T01:26:30.447Z,48.39
2022-08-18T01:29:11.948Z,48.29
2022-08-18T01:31:56.572Z,48.46
2022-08-18T01:34:29.839Z,48.36
2022-08-18T01:37:05.191Z,48.30
2022-08-18T01:41:24.575Z,48.45
2022-08-18T01:42:36.452Z,48.42
2022-08-18T01:45:11.694Z,48.62
2022-08-18T01:47:47.513Z,48.69
2022-08-18T01:50:21.593Z,48.82
2022-08-18T01:52:54.390Z,48.67
2022-08-18T01:55:28.530Z,48.85
2022-08-18T01:58:01.984Z,49.02
2022-08-18T02:00:35.689Z,49.03
2022-08-18T02:03:12.730Z,48.98
2022-08-18T02:05:49.891Z,49.02
2022-08-18T02:08:23.197Z,49.01
2022-08-18T02:11:00.690Z,49.03
2022-08-18T02:13:34.535Z,49.04
2022-08-18T02:16:09.205Z,49.09
2022-08-18T02:18:48.115Z,49.37
2022-08-18T02:21:23.491Z,49.46
2022-08-18T02:23:56.171Z,49.74
2022-08-18T02:26:28.854Z,49.66
2022-08-18T02:29:01.961Z,49.73
2022-08-18T02:31:34.556Z,49.74
2022-08-18T02:34:07.108Z,49.78
2022-08-18T02:36:39.697Z,49.72
2022-08-18T02:39:12.327Z,49.78
2022-08-18T02:41:45.079Z,49.79
2022-08-18T02:44:17.895Z,49.74
2022-08-18T02:46:57.634Z,49.73
2022-08-18T02:49:30.418Z,49.82
2022-08-18T02:52:02.855Z,49.74
2022-08-18T02:54:36.898Z,49.70
2022-08-18T02:57:14.834Z,49.86
2022-08-18T02:59:53.281Z,49.90
2022-08-18T03:02:27.435Z,49.96
2022-08-18T03:05:00.180Z,50.11
2022-08-18T03:07:32.556Z,50.00
2022-08-18T03:10:31.241Z,49.98
2022-08-18T03:12:57.528Z,50.06
2022-08-18T03:15:30.153Z,50.07
2022-08-18T03:18:02.552Z,50.06
2022-08-18T03:20:35.193Z,50.01
2022-08-18T03:23:10.110Z,50.03
2022-08-18T03:25:48.952Z,50.08
2022-08-18T03:28:22.657Z,50.16
2022-08-18T03:30:55.437Z,50.11
2022-08-18T03:33:28.122Z,50.27
2022-08-18T03:36:10.042Z,50.56
2022-08-18T03:38:44.164Z,50.97
2022-08-18T03:41:43.431Z,50.90
2022-08-18T03:44:18.664Z,50.91
2022-08-18T03:46:51.898Z,50.93
2022-08-18T03:49:25.050Z,51.05
2022-08-18T03:52:01.335Z,51.01
2022-08-18T03:54:35.530Z,51.17
2022-08-18T03:57:11.338Z,51.51
2022-08-18T03:59:44.049Z,51.90
2022-08-18T04:02:16.629Z,51.94
2022-08-18T04:04:49.835Z,52.22
2022-08-18T04:07:24.135Z,52.10
2022-08-18T04:09:56.758Z,52.15
2022-08-18T04:12:30.777Z,52.05
2022-08-18T04:15:03.425Z,52.27
2022-08-18T04:17:35.985Z,52.40
2022-08-18T04:20:32.622Z,52.53
2022-08-18T04:23:05.462Z,52.67
2022-08-18T04:25:38.175Z,52.73
2022-08-18T04:28:18.300Z,52.64
2022-08-18T04:30:59.924Z,52.87
2022-08-18T04:33:31.339Z,52.88
2022-08-18T04:36:11.666Z,53.24
2022-08-18T04:38:47.425Z,53.35
2022-08-18T04:41:21.643Z,53.33
2022-08-18T04:43:54.214Z,53.61
2022-08-18T04:46:27.294Z,53.54
2022-08-18T04:49:01.527Z,53.65
2022-08-18T04:52:26.882Z,53.81
2022-08-18T04:54:30.737Z,53.95
2022-08-18T04:57:08.111Z,53.96
2022-08-18T04:59:41.940Z,54.09
2022-08-18T05:02:16.066Z,53.94
2022-08-18T05:04:49.030Z,54.01
2022-08-18T05:07:23.920Z,54.06
2022-08-18T05:10:01.559Z,53.90
2022-08-18T05:12:49.194Z,53.88
2022-08-18T05:15:23.910Z,53.82
2022-08-18T05:17:58.815Z,53.98
2022-08-18T05:20:31.902Z,53.76
2022-08-18T05:23:07.260Z,53.38
2022-08-18T05:25:40.789Z,53.10
2022-08-18T05:28:16.124Z,52.93
2022-08-18T05:30:49.059Z,52.73
2022-08-18T05:33:28.138Z,52.51
2022-08-18T05:36:13.023Z,52.39
2022-08-18T05:38:56.297Z,52.23
2022-08-18T05:41:37.713Z,52.09
2022-08-18T05:44:15.745Z,51.93
2022-08-18T05:46:55.141Z,52.03
2022-08-18T05:49:29.487Z,51.82
2022-08-18T05:52:11.327Z,51.78
2022-08-18T05:55:15.389Z,51.82
2022-08-18T05:57:53.635Z,51.57
2022-08-18T06:00:30.232Z,51.62
2022-08-18T06:03:10.270Z,51.42
2022-08-18T06:05:50.241Z,51.35
2022-08-18T06:08:32.388Z,51.36
2022-08-18T06:15:26.451Z,51.29
2022-08-18T06:18:22.799Z,51.35
2022-08-18T06:21:19.730Z,51.36
2022-08-18T06:24:07.600Z,51.25
2022-08-18T06:26:49.601Z,51.12
2022-08-18T06:29:38.732Z,50.95
2022-08-18T06:32:22.251Z,50.88
2022-08-18T06:35:12.394Z,51.02
2022-08-18T06:38:11.663Z,51.18
2022-08-18T06:40:44.376Z,50.87
2022-08-18T06:43:18.652Z,51.02
2022-08-18T06:45:52.493Z,50.94
2022-08-18T06:48:33.261Z,50.76
2022-08-18T06:51:14.759Z,50.77
2022-08-18T06:54:02.050Z,50.75
2022-08-18T06:56:48.481Z,50.78
2022-08-18T06:59:30.699Z,50.56
2022-08-18T07:02:38.773Z,50.49
2022-08-18T07:05:21.100Z,50.38
2022-08-18T07:08:14.816Z,50.45
2022-08-18T07:10:49.902Z,50.24
2022-08-18T07:13:31.978Z,50.06
2022-08-18T07:19:33.223Z,49.89
2022-08-18T07:22:06.938Z,49.69
2022-08-18T07:24:46.271Z,49.83
2022-08-18T07:27:23.274Z,49.69
2022-08-18T07:30:05.562Z,49.64
2022-08-18T07:32:41.887Z,49.46
2022-08-18T07:35:15.508Z,49.53
2022-08-18T07:37:51.982Z,49.17
2022-08-18T07:40:29.287Z,49.19
2022-08-18T07:43:06.218Z,48.93
2022-08-18T07:45:40.585Z,48.87
2022-08-18T07:48:36.884Z,48.87
2022-08-18T07:51:18.220Z,48.40
2022-08-18T07:53:58.295Z,48.52
2022-08-18T07:56:43.213Z,48.31
2022-08-18T07:59:37.622Z,48.52
2022-08-18T08:02:28.615Z,48.21
2022-08-18T08:05:07.995Z,48.14
2022-08-18T08:07:53.985Z,47.80
2022-08-18T08:10:33.692Z,48.13
2022-08-18T08:13:36.842Z,47.60
2022-08-18T08:16:16.704Z,47.78
2022-08-18T08:18:55.467Z,47.59
2022-08-18T08:21:45.133Z,47.60
2022-08-18T08:24:42.132Z,47.17
2022-08-18T08:27:17.599Z,46.82
2022-08-18T08:29:59.401Z,46.96
2022-08-18T08:32:48.449Z,46.86
2022-08-18T08:35:48.848Z,46.94
2022-08-18T08:38:40.347Z,46.86
2022-08-18T08:41:33.774Z,47.04
2022-08-18T08:44:09.834Z,46.83
2022-08-18T08:46:46.243Z,46.91
2022-08-18T08:49:27.782Z,46.80
2022-08-18T08:52:21.541Z,46.51
2022-08-18T08:55:00.006Z,46.33
2022-08-18T08:57:37.717Z,46.29
2022-08-18T09:04:35.558Z,46.27
2022-08-18T09:07:50.159Z,45.88
2022-08-18T09:10:52.695Z,45.77
2022-08-18T09:13:59.592Z,45.84
2022-08-18T09:16:45.060Z,45.34
2022-08-18T09:19:39.679Z,45.75
2022-08-18T09:22:17.209Z,45.28
2022-08-18T09:24:50.985Z,45.54
2022-08-18T09:27:53.738Z,45.24
2022-08-18T09:30:39.743Z,45.42
2022-08-18T09:33:34.736Z,45.32
2022-08-18T09:36:19.967Z,45.17
2022-08-18T09:39:13.783Z,45.22
2022-08-18T09:41:56.978Z,45.14
2022-08-18T09:45:01.103Z,45.20
2022-08-18T09:47:58.294Z,45.18
2022-08-18T09:50:54.301Z,45.34
2022-08-18T09:53:52.824Z,45.07
2022-08-18T09:56:55.863Z,44.97
2022-08-18T10:00:17.109Z,44.99
2022-08-18T10:03:26.051Z,44.87
2022-08-18T10:09:35.994Z,44.54
2022-08-18T10:12:28.303Z,44.76
2022-08-18T10:15:13.285Z,44.51
2022-08-18T10:17:54.382Z,44.32
2022-08-18T10:20:41.209Z,44.43
2022-08-18T10:23:42.699Z,44.59
2022-08-18T10:27:08.194Z,44.55
2022-08-18T10:29:59.900Z,44.38
2022-08-18T10:32:54.513Z,44.11
2022-08-18T10:35:55.007Z,44.18
2022-08-18T10:38:39.533Z,44.28
2022-08-18T10:41:20.317Z,44.25
2022-08-18T10:43:55.988Z,44.14
2022-08-18T10:46:34.353Z,43.96
2022-08-18T10:49:17.374Z,43.69
2022-08-18T10:52:20.683Z,43.79
2022-08-18T10:55:18.453Z,43.73
2022-08-18T10:58:23.974Z,43.24
2022-08-18T11:01:07.963Z,43.21
2022-08-18T11:03:56.577Z,43.20
2022-08-18T11:06:36.666Z,43.25
2022-08-18T11:13:02.881Z,43.16
2022-08-18T11:13:08.924Z,43.13
2022-08-18T11:16:03.357Z,42.94
2022-08-18T11:18:42.786Z,42.86
2022-08-18T11:21:42.326Z,43.04
2022-08-18T11:24:25.410Z,42.95
2022-08-18T11:27:09.641Z,42.86
2022-08-18T11:29:46.532Z,42.65
2022-08-18T11:32:32.645Z,42.67
2022-08-18T11:35:11.211Z,42.39
2022-08-18T11:37:51.250Z,42.64
2022-08-18T11:43:41.374Z,42.46
2022-08-18T11:46:30.117Z,42.17
2022-08-18T11:49:13.811Z,41.81
2022-08-18T11:52:03.437Z,41.30
2022-08-18T11:54:50.560Z,40.98
2022-08-18T11:57:58.715Z,41.13
2022-08-18T12:01:02.988Z,41.05
2022-08-18T12:03:41.690Z,41.10
2022-08-18T12:06:21.795Z,41.16
2022-08-18T12:09:45.493Z,40.68
2022-08-18T12:12:20.245Z,40.66
2022-08-18T12:15:04.905Z,40.77
2022-08-18T12:20:34.598Z,40.30
2022-08-18T12:23:03.689Z,40.14
2022-08-18T12:25:34.302Z,40.17
2022-08-18T12:28:03.953Z,39.97
2022-08-18T12:30:42.237Z,39.70
2022-08-18T12:33:12.496Z,39.57
2022-08-18T12:35:45.771Z,39.24
2022-08-18T12:38:18.785Z,39.28
2022-08-18T12:41:06.210Z,38.87
2022-08-18T12:43:58.641Z,38.53
2022-08-18T12:46:32.083Z,38.21
2022-08-18T12:49:04.829Z,38.01
2022-08-18T12:51:36.802Z,37.60
2022-08-18T12:54:12.688Z,37.93
2022-08-18T12:56:43.230Z,38.00
2022-08-18T12:59:14.057Z,38.14
2022-08-18T13:01:43.277Z,38.01
2022-08-18T13:04:14.260Z,38.09
2022-08-18T13:07:00.564Z,38.07
2022-08-18T13:09:52.775Z,38.09
2022-08-18T13:12:25.159Z,38.16
2022-08-18T13:14:58.420Z,38.00
2022-08-18T13:17:32.893Z,37.68
2022-08-18T13:20:10.254Z,37.53
2022-08-18T13:23:03.720Z,37.54
2022-08-18T13:25:41.685Z,37.22
2022-08-18T13:28:18.048Z,37.07
2022-08-18T13:30:52.941Z,36.77
2022-08-18T13:33:35.352Z,36.36
2022-08-18T13:36:17.035Z,36.01
2022-08-18T13:38:49.605Z,35.75
2022-08-18T13:41:21.500Z,35.56
2022-08-18T13:43:57.036Z,35.48
2022-08-18T13:46:31.175Z,35.22
2022-08-18T13:49:03.496Z,35.12
2022-08-18T13:51:40.281Z,34.97
2022-08-18T13:54:34.081Z,34.47
2022-08-18T13:57:06.583Z,33.98
2022-08-18T13:59:46.405Z,33.89
2022-08-18T14:02:17.023Z,33.64
2022-08-18T14:04:48.839Z,33.52
2022-08-18T14:07:24.639Z,33.20
2022-08-18T14:10:04.485Z,33.18
2022-08-18T14:12:42.961Z,32.75
2022-08-18T14:15:15.355Z,32.57
2022-08-18T14:17:51.866Z,32.44
2022-08-18T14:20:48.184Z,32.04
2022-08-18T14:23:43.696Z,31.86
2022-08-18T14:26:39.365Z,31.40
2022-08-18T14:29:16.516Z,31.60
2022-08-18T14:31:52.878Z,31.86
2022-08-18T14:34:50.968Z,31.49
2022-08-18T14:37:20.855Z,31.54
2022-08-18T14:39:57.444Z,31.31
2022-08-18T14:42:32.627Z,31.10
2022-08-18T14:45:26.779Z,30.80
2022-08-18T14:48:07.331Z,30.95
2022-08-18T14:50:37.711Z,30.83
2022-08-18T14:53:26.409Z,30.64
2022-08-18T14:56:01.179Z,30.74
2022-08-18T14:58:36.999Z,30.30
2022-08-18T15:01:16.088Z,30.09
2022-08-18T15:03:55.261Z,30.33
2022-08-18T15:06:28.558Z,30.20
2022-08-18T15:08:59.066Z,30.21
2022-08-18T15:11:33.298Z,30.18
2022-08-18T15:14:06.067Z,29.82
2022-08-18T15:16:39.776Z,29.60
2022-08-18T15:20:00.422Z,29.37
2022-08-18T15:22:40.228Z,29.39
2022-08-18T15:25:29.436Z,29.03
2022-08-18T15:28:01.258Z,29.20
2022-08-18T15:33:07.229Z,29.06
2022-08-18T15:35:44.314Z,29.15
2022-08-18T15:38:14.023Z,28.70
2022-08-18T15:40:54.860Z,28.77
2022-08-18T15:43:31.239Z,28.81
2022-08-18T15:46:05.875Z,28.64
2022-08-18T15:48:35.178Z,28.34
2022-08-18T15:51:11.498Z,28.26
2022-08-18T15:53:44.448Z,28.26
2022-08-18T15:56:20.964Z,28.02
2022-08-18T15:58:53.323Z,28.29
2022-08-18T16:01:30.328Z,28.29
2022-08-18T16:04:03.404Z,28.26
2022-08-18T16:06:50.535Z,28.36
2022-08-18T16:09:26.357Z,28.51
2022-08-18T16:12:02.038Z,28.53
2022-08-18T16:14:45.417Z,28.68
2022-08-18T16:17:23.679Z,28.61
2022-08-18T16:19:56.478Z,28.52
2022-08-18T16:22:43.225Z,28.46
2022-08-18T16:25:18.795Z,28.50
2022-08-18T16:27:51.384Z,28.48
2022-08-18T16:30:30.328Z,28.18
2022-08-18T16:33:07.798Z,28.42
2022-08-18T16:35:38.219Z,28.42
2022-08-18T16:38:42.935Z,28.48
2022-08-18T16:41:17.079Z,28.66
2022-08-18T16:44:04.344Z,28.72
2022-08-18T16:46:37.473Z,28.80
2022-08-18T16:49:34.688Z,28.96
2022-08-18T16:52:09.347Z,29.25
2022-08-18T16:55:06.229Z,29.29
2022-08-18T16:58:03.507Z,29.45
2022-08-18T17:00:58.452Z,29.60
2022-08-18T17:03:46.927Z,29.69
2022-08-18T17:06:20.960Z,29.87
2022-08-18T17:09:10.086Z,29.98
2022-08-18T17:12:05.685Z,30.28
2022-08-18T17:14:42.191Z,30.29
2022-08-18T17:17:33.034Z,30.30
2022-08-18T17:20:11.219Z,30.55
2022-08-18T17:22:58.293Z,30.54
2022-08-18T17:28:39.177Z,31.01
2022-08-18T17:31:15.209Z,31.23
2022-08-18T17:34:09.757Z,31.24
2022-08-18T17:36:54.369Z,31.51
2022-08-18T17:39:29.136Z,31.59
2022-08-18T17:42:18.947Z,31.92
2022-08-18T17:44:52.557Z,32.08
2022-08-18T17:47:29.135Z,32.37
2022-08-18T17:50:27.363Z,32.42
2022-08-18T17:53:05.234Z,32.61
2022-08-18T17:55:41.602Z,32.92
2022-08-18T17:58:29.719Z,33.00
2022-08-18T18:01:00.940Z,33.22
2022-08-18T18:03:35.855Z,33.54
2022-08-18T18:06:11.424Z,33.71
2022-08-18T18:11:56.740Z,33.81
2022-08-18T18:15:07.968Z,34.14
2022-08-18T18:17:42.073Z,34.14
2022-08-18T18:20:52.804Z,34.45
2022-08-18T18:23:45.826Z,34.61
2022-08-18T18:27:00.504Z,34.97
2022-08-18T18:29:58.493Z,34.97
2022-08-18T18:32:34.815Z,35.13
2022-08-18T18:35:12.455Z,35.14
2022-08-18T18:37:51.504Z,35.65
2022-08-18T18:42:42.761Z,35.81
2022-08-18T18:44:25.603Z,36.17
2022-08-18T18:47:42.978Z,36.16
2022-08-18T18:51:10.434Z,36.76
2022-08-18T18:57:40.475Z,37.57
2022-08-18T19:00:53.724Z,37.62
2022-08-18T19:03:34.646Z,37.76
2022-08-18T19:06:15.725Z,37.92
2022-08-18T19:08:59.252Z,38.03
2022-08-18T19:11:51.358Z,38.24
2022-08-18T19:14:38.304Z,38.31
2022-08-18T19:17:18.207Z,38.59
2022-08-18T19:19:51.983Z,38.62
2022-08-18T19:22:25.066Z,38.80
2022-08-18T19:25:00.641Z,39.15
2022-08-18T19:27:37.378Z,39.13
2022-08-18T19:30:21.888Z,39.31
2022-08-18T19:32:57.061Z,39.23
2022-08-18T19:35:47.962Z,39.29
2022-08-18T19:38:25.998Z,39.27
2022-08-18T19:41:05.007Z,39.38
2022-08-18T19:43:43.495Z,39.43
2022-08-18T19:46:36.226Z,39.61
2022-08-18T19:49:17.958Z,39.81
2022-08-18T19:51:53.597Z,39.65
2022-08-18T19:54:43.925Z,39.71
2022-08-18T19:57:29.949Z,40.10
2022-08-18T20:00:22.263Z,40.22
2022-08-18T20:03:24.583Z,40.40
2022-08-18T20:06:33.271Z,40.56
2022-08-18T20:09:21.127Z,40.74
2022-08-18T20:12:07.033Z,40.87
2022-08-18T20:14:42.132Z,40.88
2022-08-18T20:17:21.263Z,41.10
2022-08-18T20:20:17.912Z,41.16
2022-08-18T20:22:55.154Z,41.32
2022-08-18T20:25:46.575Z,41.51
2022-08-18T20:28:34.455Z,41.75
2022-08-18T20:31:16.252Z,41.82
2022-08-18T20:34:13.860Z,42.10
2022-08-18T20:36:46.629Z,42.04
2022-08-18T20:39:39.680Z,42.15
2022-08-18T20:42:33.382Z,42.41
2022-08-18T20:45:16.047Z,42.34
2022-08-18T20:48:23.894Z,42.69
2022-08-18T20:51:03.399Z,42.70
2022-08-18T20:53:50.479Z,42.84
2022-08-18T20:56:43.652Z,43.07
2022-08-18T20:59:20.236Z,43.11
2022-08-18T21:01:58.523Z,43.28
2022-08-18T21:04:46.126Z,43.37
2022-08-18T21:07:36.856Z,43.37
2022-08-18T21:10:13.872Z,43.69
2022-08-18T21:12:51.611Z,43.71
2022-08-18T21:15:24.242Z,43.80
2022-08-18T21:18:04.012Z,43.93
2022-08-18T21:20:34.726Z,44.06
2022-08-18T21:23:07.702Z,44.20
2022-08-18T21:25:41.482Z,44.18
2022-08-18T21:28:12.975Z,44.38
2022-08-18T21:31:28.936Z,44.50
2022-08-18T21:34:16.516Z,44.58
2022-08-18T21:36:54.416Z,44.81
2022-08-18T21:39:23.906Z,45.17
2022-08-18T21:42:20.745Z,45.04
2022-08-18T21:45:00.523Z,45.20
2022-08-18T21:47:49.247Z,44.96
2022-08-18T21:50:37.608Z,45.25
2022-08-18T21:53:31.630Z,45.47
2022-08-18T21:56:32.947Z,45.38
2022-08-18T21:59:16.883Z,45.32
2022-08-18T22:01:52.287Z,45.64
2022-08-18T22:04:28.673Z,45.83
2022-08-18T22:06:59.714Z,45.91
2022-08-18T22:09:55.472Z,45.76
2022-08-18T22:12:49.109Z,45.94
2022-08-18T22:15:25.474Z,46.05
2022-08-18T22:17:59.084Z,45.87
2022-08-18T22:20:46.418Z,46.02
2022-08-18T22:23:50.405Z,46.31
2022-08-18T22:26:26.579Z,46.51
2022-08-18T22:29:00.349Z,46.51
2022-08-18T22:31:32.664Z,46.49
2022-08-18T22:34:06.776Z,46.57
2022-08-18T22:36:39.651Z,46.57
2022-08-18T22:39:13.099Z,46.72
2022-08-18T22:41:49.227Z,46.72
2022-08-18T22:44:18.584Z,46.92
2022-08-18T22:46:50.027Z,46.87
2022-08-18T22:49:20.014Z,46.94
2022-08-18T22:51:57.355Z,47.14
2022-08-18T22:54:26.860Z,47.03
2022-08-18T22:56:57.933Z,46.93
2022-08-18T22:59:27.814Z,47.31
2022-08-18T23:02:01.684Z,47.27
2022-08-18T23:04:33.265Z,47.41
2022-08-18T23:07:03.254Z,47.54
2022-08-18T23:09:33.864Z,47.57
2022-08-18T23:12:10.412Z,47.94
2022-08-18T23:14:41.127Z,48.19
2022-08-18T23:17:10.388Z,48.30
2022-08-18T23:19:40.643Z,48.11
2022-08-18T23:22:11.025Z,48.59
2022-08-18T23:24:41.172Z,48.53
2022-08-18T23:27:10.452Z,48.53
2022-08-18T23:29:40.763Z,48.56
2022-08-18T23:32:09.888Z,48.51
2022-08-18T23:34:39.233Z,48.75
2022-08-18T23:37:09.704Z,48.84
2022-08-18T23:39:40.135Z,48.65
2022-08-18T23:42:12.859Z,48.76
2022-08-18T23:44:43.151Z,49.24
2022-08-18T23:47:12.426Z,49.17
2022-08-18T23:49:41.716Z,49.38
2022-08-18T23:52:13.239Z,49.57
2022-08-18T23:54:42.556Z,49.69
2022-08-18T23:57:11.807Z,49.68
2022-08-18T23:59:41.538Z,49.81
